createdAt,value
2023-04-18T00:06:32.773Z,8.90
2023-04-18T00:16:38.159Z,8.80
2023-04-18T00:26:41.266Z,8.68
2023-04-18T00:36:46.354Z,8.55
2023-04-18T00:46:49.360Z,8.39
2023-04-18T00:56:54.034Z,8.38
2023-04-18T01:06:57.232Z,8.39
2023-04-18T01:17:02.287Z,8.37
2023-04-18T01:27:06.478Z,8.27
2023-04-18T01:37:12.215Z,8.04
2023-04-18T01:47:17.644Z,7.92
2023-04-18T01:57:20.668Z,7.75
2023-04-18T02:07:26.814Z,7.65
2023-04-18T02:17:30.530Z,7.54
2023-04-18T02:27:34.963Z,7.39
2023-04-18T02:37:37.938Z,7.25
2023-04-18T02:47:53.792Z,7.14
2023-04-18T02:57:58.934Z,6.99
2023-04-18T03:08:09.384Z,6.88
2023-04-18T03:18:14.748Z,6.74
2023-04-18T03:28:21.722Z,6.58
2023-04-18T03:38:24.840Z,6.47
2023-04-18T03:48:29.825Z,6.30
2023-04-18T03:58:37.062Z,6.17
2023-04-18T04:08:41.791Z,6.06
2023-04-18T04:18:45.007Z,5.92
2023-04-18T04:28:51.630Z,5.84
2023-04-18T04:38:58.621Z,5.82
2023-04-18T04:49:11.653Z,5.75
2023-04-18T04:59:14.941Z,5.74
2023-04-18T05:09:22.092Z,5.67
2023-04-18T05:19:25.220Z,5.76
2023-04-18T05:29:29.744Z,5.82
2023-04-18T05:39:32.751Z,5.89
2023-04-18T05:49:37.226Z,6.19
2023-04-18T05:59:40.340Z,6.56
2023-04-18T06:09:44.820Z,6.91
2023-04-18T06:19:47.881Z,7.21
2023-04-18T06:29:52.255Z,7.35
2023-04-18T06:39:55.322Z,7.62
2023-04-18T06:49:59.777Z,7.97
2023-04-18T07:00:02.827Z,8.34
2023-04-18T07:10:09.916Z,8.53
2023-04-18T07:20:14.409Z,8.77
2023-04-18T07:30:18.953Z,8.62
2023-04-18T07:40:22.512Z,8.79
2023-04-18T07:50:27.093Z,8.98
2023-04-18T08:00:32.632Z,9.32
2023-04-18T08:10:37.957Z,9.86
2023-04-18T08:20:41.209Z,9.90
2023-04-18T08:30:48.769Z,9.66
2023-04-18T08:40:51.880Z,9.92
2023-04-18T08:50:59.694Z,10.55
2023-04-18T09:01:03.475Z,10.66
2023-04-18T09:11:26.176Z,11.46
2023-04-18T09:21:29.801Z,11.90
2023-04-18T09:31:35.773Z,11.62
2023-04-18T09:41:38.794Z,11.64
2023-04-18T09:51:44.693Z,11.35
2023-04-18T10:01:48.658Z,11.85
2023-04-18T10:11:53.987Z,11.73
2023-04-18T10:21:58.979Z,11.76
2023-04-18T10:32:07.353Z,11.66
2023-04-18T10:42:10.423Z,11.72
2023-04-18T10:52:15.675Z,11.92
2023-04-18T11:02:26.269Z,12.27
2023-04-18T11:12:34.229Z,11.93
2023-04-18T11:22:46.594Z,12.07
2023-04-18T11:32:51.822Z,12.13
2023-04-18T11:42:55.735Z,12.43
2023-04-18T11:53:00.162Z,11.94
2023-04-18T12:03:05.480Z,12.16
2023-04-18T12:13:10.155Z,12.45
2023-04-18T12:23:30.875Z,13.17
2023-04-18T12:33:36.749Z,13.36
2023-04-18T12:43:39.851Z,12.99
2023-04-18T12:53:44.202Z,12.87
2023-04-18T13:03:56.515Z,13.04
2023-04-18T13:14:08.687Z,12.83
2023-04-18T13:24:12.155Z,13.15
2023-04-18T13:34:17.653Z,13.13
2023-04-18T13:44:21.210Z,13.35
2023-04-18T13:54:26.713Z,13.29
2023-04-18T14:04:31.949Z,13.16
2023-04-18T14:14:37.123Z,13.13
2023-04-18T14:24:40.331Z,13.16
2023-04-18T14:34:45.216Z,13.13
2023-04-18T14:44:48.364Z,13.89
2023-04-18T14:54:52.729Z,14.25
2023-04-18T15:04:55.867Z,14.62
2023-04-18T15:15:00.649Z,14.41
2023-04-18T15:25:04.155Z,15.75
2023-04-18T15:35:09.412Z,16.22
2023-04-18T15:45:13.143Z,16.62
2023-04-18T15:55:17.565Z,15.98
2023-04-18T16:05:21.395Z,14.83
2023-04-18T16:15:26.211Z,14.42
2023-04-18T16:25:30.502Z,14.08
2023-04-18T16:35:35.801Z,13.82
2023-04-18T16:45:38.814Z,13.87
2023-04-18T16:55:43.276Z,13.84
2023-04-18T17:05:46.675Z,13.85
2023-04-18T17:15:51.219Z,14.10
2023-04-18T17:25:54.266Z,13.71
2023-04-18T17:35:58.710Z,13.42
2023-04-18T17:46:03.636Z,13.27
2023-04-18T17:56:08.259Z,13.06
2023-04-18T18:06:12.990Z,12.85
2023-04-18T18:16:17.419Z,12.63
2023-04-18T18:26:20.439Z,12.48
2023-04-18T18:36:25.036Z,12.26
2023-04-18T18:46:28.310Z,11.98
2023-04-18T18:56:32.817Z,11.81
2023-04-18T19:06:35.878Z,11.60
2023-04-18T19:16:40.320Z,11.45
2023-04-18T19:26:43.540Z,11.19
2023-04-18T19:36:48.006Z,10.96
2023-04-18T19:46:51.081Z,10.92
2023-04-18T19:56:55.602Z,10.77
2023-04-18T20:06:58.608Z,10.73
2023-04-18T20:17:03.063Z,10.58
2023-04-18T20:27:06.308Z,10.47
2023-04-18T20:37:10.690Z,10.33
2023-04-18T20:47:15.248Z,10.30
2023-04-18T20:57:20.964Z,10.28
2023-04-18T21:07:23.961Z,10.11
2023-04-18T21:17:28.327Z,9.97
2023-04-18T21:27:31.620Z,9.86
2023-04-18T21:37:36.123Z,9.86
2023-04-18T21:47:39.529Z,9.66
2023-04-18T21:57:43.909Z,9.55
2023-04-18T22:07:57.457Z,9.56
2023-04-18T22:18:03.875Z,9.54
2023-04-18T22:28:08.487Z,9.46
2023-04-18T22:38:12.922Z,9.35
2023-04-18T22:48:17.127Z,9.29
2023-04-18T22:58:21.560Z,9.19
2023-04-18T23:08:24.518Z,9.15
2023-04-18T23:18:29.843Z,9.20
2023-04-18T23:28:34.003Z,9.16
2023-04-18T23:38:38.493Z,9.42
2023-04-18T23:48:41.489Z,9.66
2023-04-18T23:58:45.828Z,9.93
